Time;durP1;ratioP1;P1;durP2;ratioP2;P2;SDS_P1;SDS_P2;PMS_P1;PMS_P2;Temp;Humidity;BMP_temperature;BMP_pressure;BME280_temperature;BME280_humidity;BME280_pressure;Samples;Min_cycle;Max_cycle;Signal;HPM_P1;HPM_P2
2023/07/03 00:00:44;;;;;;;10.40;6.40;;;;;;;15.80;46.86;100166.98;105038;1292;60653;-82
2023/07/03 00:03:30;;;;;;;12.40;5.90;;;;;;;15.75;46.96;100165.95;105038;1292;60367;-82
2023/07/03 00:06:17;;;;;;;7.50;5.90;;;;;;;15.68;47.03;100167.13;104945;1292;72456;-83
2023/07/03 00:09:05;;;;;;;11.30;6.50;;;;;;;15.63;47.13;100168.23;105137;1292;67392;-82
2023/07/03 00:11:51;;;;;;;15.20;6.50;;;;;;;15.57;47.22;100169.23;105084;1292;71372;-82
2023/07/03 00:14:40;;;;;;;12.00;5.50;;;;;;;15.54;47.33;100174.70;105097;1293;59089;-82
2023/07/03 00:17:28;;;;;;;9.80;5.80;;;;;;;15.47;47.37;100171.87;105368;1292;60101;-82
2023/07/03 00:20:21;;;;;;;9.90;6.20;;;;;;;15.46;47.45;100174.00;105066;1292;73440;-83
2023/07/03 00:23:08;;;;;;;10.40;6.10;;;;;;;15.41;47.51;100171.95;105251;1291;67451;-82
2023/07/03 00:25:54;;;;;;;12.80;6.50;;;;;;;15.40;47.57;100174.61;105125;1291;72541;-83
2023/07/03 00:28:42;;;;;;;12.00;6.60;;;;;;;15.40;47.64;100169.40;105008;1298;61886;-82
2023/07/03 00:31:29;;;;;;;12.90;5.70;;;;;;;15.36;47.66;100173.05;105181;1296;60570;-82
2023/07/03 00:34:18;;;;;;;15.80;5.90;;;;;;;15.35;47.77;100172.23;104991;1291;73315;-82
2023/07/03 00:37:05;;;;;;;9.50;5.50;;;;;;;15.32;47.73;100175.48;105030;1292;68049;-81
2023/07/03 00:40:00;;;;;;;12.00;5.80;;;;;;;15.32;47.81;100177.74;105112;1297;71544;-82
2023/07/03 00:42:50;;;;;;;15.00;5.70;;;;;;;15.31;47.79;100181.42;105142;1292;60518;-82
2023/07/03 00:45:37;;;;;;;10.80;5.50;;;;;;;15.30;47.88;100179.05;105167;1292;59195;-82
2023/07/03 00:48:23;;;;;;;14.60;5.10;;;;;;;15.27;47.91;100183.35;104967;1291;72474;-82
2023/07/03 00:51:13;;;;;;;11.10;6.20;;;;;;;15.28;48.04;100186.94;105005;1292;67201;-83
2023/07/03 00:54:03;;;;;;;7.60;5.00;;;;;;;15.28;48.07;100180.34;104930;1292;71626;-82
2023/07/03 00:56:54;;;;;;;14.40;6.80;;;;;;;15.31;48.10;100182.64;105210;1291;60867;-82
2023/07/03 00:59:48;;;;;;;12.50;5.50;;;;;;;15.30;48.13;100181.48;105071;1292;60380;-82
2023/07/03 01:02:44;;;;;;;11.50;5.70;;;;;;;15.27;48.23;100180.02;105056;1292;72373;-82
2023/07/03 01:05:40;;;;;;;10.50;5.60;;;;;;;15.26;48.25;100182.33;105359;1295;69034;-83
2023/07/03 01:08:26;;;;;;;11.40;6.00;;;;;;;15.29;48.31;100183.77;105056;1292;71897;-83
2023/07/03 01:11:13;;;;;;;;;;;;;;;15.29;48.35;100188.98;105150;1292;60453;-83
2023/07/03 01:14:02;;;;;;;13.00;5.70;;;;;;;15.27;48.45;100185.94;105120;1292;58639;-83
2023/07/03 01:16:50;;;;;;;11.40;5.90;;;;;;;15.28;48.40;100189.39;105033;1292;76550;-82
2023/07/03 01:19:40;;;;;;;7.30;5.30;;;;;;;15.28;48.53;100184.52;104978;1292;67895;-82
2023/07/03 01:22:40;;;;;;;14.60;6.20;;;;;;;15.26;48.46;100181.28;104996;1295;71551;-82
2023/07/03 01:25:31;;;;;;;9.00;5.80;;;;;;;15.27;48.55;100182.14;105131;1296;60389;-82
2023/07/03 01:28:21;;;;;;;8.20;5.70;;;;;;;15.26;48.65;100180.45;105181;1292;60340;-82
2023/07/03 01:31:08;;;;;;;8.70;5.20;;;;;;;15.27;48.61;100176.59;104962;1292;75141;-83
2023/07/03 01:33:59;;;;;;;12.20;5.90;;;;;;;15.27;48.61;100178.30;105338;1292;67569;-82
2023/07/03 01:36:47;;;;;;;9.30;5.40;;;;;;;15.28;48.63;100177.91;105125;1292;71417;-82
2023/07/03 01:39:35;;;;;;;11.90;5.90;;;;;;;15.25;48.70;100176.14;105042;1292;60475;-82
2023/07/03 01:42:26;;;;;;;8.00;5.90;;;;;;;15.19;48.77;100173.59;105008;1292;60307;-82
2023/07/03 01:45:13;;;;;;;13.00;5.90;;;;;;;15.14;48.81;100171.35;105115;1291;72624;-83
2023/07/03 01:48:00;;;;;;;13.10;5.60;;;;;;;15.13;48.91;100168.80;105102;1291;68227;-82
2023/07/03 01:50:48;;;;;;;11.90;5.10;;;;;;;15.09;48.92;100171.62;105180;1292;71493;-82
2023/07/03 01:53:49;;;;;;;7.70;5.20;;;;;;;15.04;48.97;100168.55;105057;1292;60502;-83
2023/07/03 01:56:41;;;;;;;8.30;6.10;;;;;;;15.01;48.98;100170.73;105209;1292;60390;-82
2023/07/03 01:59:29;;;;;;;9.30;5.50;;;;;;;14.99;49.04;100172.56;104878;1292;71635;-84
2023/07/03 02:02:23;;;;;;;10.10;5.30;;;;;;;14.96;49.13;100173.04;105022;1292;70017;-83
2023/07/03 02:05:17;;;;;;;12.10;5.80;;;;;;;14.93;49.22;100173.35;104884;1292;71277;-83
2023/07/03 02:08:07;;;;;;;14.70;6.00;;;;;;;14.86;49.31;100172.89;104910;1292;60397;-84
2023/07/03 02:10:54;;;;;;;8.20;5.50;;;;;;;14.84;49.29;100174.20;104875;1292;60549;-84
2023/07/03 02:13:41;;;;;;;12.70;5.90;;;;;;;14.77;49.31;100177.59;104997;1292;72366;-83
2023/07/03 02:16:29;;;;;;;12.70;5.80;;;;;;;14.75;49.46;100178.73;104915;1292;67278;-84
2023/07/03 02:19:16;;;;;;;13.30;5.90;;;;;;;14.71;49.51;100176.47;104994;1292;71345;-84
2023/07/03 02:22:03;;;;;;;12.20;6.40;;;;;;;14.71;49.54;100178.03;104864;1293;60328;-84
2023/07/03 02:24:49;;;;;;;13.70;5.40;;;;;;;14.70;49.65;100177.38;105063;1292;60322;-84
2023/07/03 02:27:35;;;;;;;8.00;5.50;;;;;;;14.68;49.70;100178.69;104904;1292;75150;-84
2023/07/03 02:30:21;;;;;;;7.10;5.40;;;;;;;14.64;49.67;100177.96;104992;1292;69165;-84
2023/07/03 02:33:08;;;;;;;;;;;;;;;14.62;49.75;100179.97;104985;1292;70258;-84
2023/07/03 02:35:54;;;;;;;8.80;5.00;;;;;;;14.57;49.82;100177.03;105049;1292;60500;-83
2023/07/03 02:38:40;;;;;;;13.00;5.60;;;;;;;14.53;49.80;100177.89;105081;1292;60254;-84
2023/07/03 02:41:28;;;;;;;9.70;5.70;;;;;;;14.49;49.92;100177.73;105037;1295;72521;-84
2023/07/03 02:44:14;;;;;;;11.00;6.10;;;;;;;14.46;49.96;100181.11;105184;1292;68532;-84
2023/07/03 02:47:00;;;;;;;9.60;5.80;;;;;;;14.40;50.06;100180.28;105020;1292;71176;-84
2023/07/03 02:49:46;;;;;;;10.80;5.80;;;;;;;14.37;50.08;100180.41;104920;1292;59156;-84
2023/07/03 02:52:33;;;;;;;13.20;6.00;;;;;;;14.36;50.19;100180.98;105075;1293;60403;-84
2023/07/03 02:55:19;;;;;;;12.10;6.10;;;;;;;14.34;50.23;100177.04;104916;1292;168742;-84
2023/07/03 02:58:05;;;;;;;11.30;6.60;;;;;;;14.35;50.27;100173.91;105095;1293;70057;-84
2023/07/03 03:00:53;;;;;;;8.30;5.70;;;;;;;14.32;50.37;100171.05;105080;1292;71406;-84
2023/07/03 03:03:39;;;;;;;8.90;5.70;;;;;;;14.32;50.40;100171.59;105054;1291;59123;-84
2023/07/03 03:06:26;;;;;;;8.90;5.80;;;;;;;14.30;50.48;100171.65;105057;1296;59832;-84
2023/07/03 03:09:12;;;;;;;8.70;6.10;;;;;;;14.28;50.55;100172.42;104927;1297;72384;-84
2023/07/03 03:11:58;;;;;;;16.10;6.50;;;;;;;14.29;50.65;100169.98;105027;1293;67407;-84
2023/07/03 03:14:44;;;;;;;;;;;;;;;14.26;50.65;100173.52;105151;1292;71292;-84
2023/07/03 03:17:31;;;;;;;13.60;5.80;;;;;;;14.25;50.67;100171.48;105185;1292;61401;-84
2023/07/03 03:20:18;;;;;;;;;;;;;;;14.27;50.80;100170.39;105187;1293;60473;-84
2023/07/03 03:23:04;;;;;;;10.20;5.70;;;;;;;14.29;50.78;100172.39;105128;1294;76550;-84
2023/07/03 03:25:50;;;;;;;10.20;5.70;;;;;;;14.33;50.88;100172.94;105032;1295;67710;-84
2023/07/03 03:28:37;;;;;;;;;;;;;;;14.34;50.92;100177.04;105176;1292;71265;-84
2023/07/03 03:31:23;;;;;;;11.80;5.90;;;;;;;14.35;51.10;100176.50;105154;1292;59148;-84
2023/07/03 03:34:09;;;;;;;12.60;6.70;;;;;;;14.38;50.94;100177.23;105119;1292;60463;-84
2023/07/03 03:36:56;;;;;;;11.40;6.30;;;;;;;14.41;51.05;100172.11;105107;1291;73528;-84
2023/07/03 03:39:42;;;;;;;;;;;;;;;14.41;51.15;100173.13;105095;1292;70123;-84
2023/07/03 03:42:28;;;;;;;9.50;5.60;;;;;;;14.43;51.21;100170.34;105084;1292;71089;-84
2023/07/03 03:45:14;;;;;;;11.30;5.30;;;;;;;14.46;51.19;100165.34;105156;1292;60915;-84
2023/07/03 03:48:01;;;;;;;12.30;6.10;;;;;;;14.48;51.28;100165.43;105153;1292;60249;-84
2023/07/03 03:50:47;;;;;;;9.40;5.80;;;;;;;14.52;51.37;100168.59;105016;1297;73254;-84
2023/07/03 03:53:33;;;;;;;13.30;6.10;;;;;;;14.55;51.35;100164.79;105125;1292;67227;-84
2023/07/03 03:56:20;;;;;;;9.90;5.70;;;;;;;14.60;51.42;100162.33;105113;1295;73985;-84
2023/07/03 03:59:06;;;;;;;;;;;;;;;14.63;51.44;100159.10;105177;1292;60428;-84
2023/07/03 04:01:53;;;;;;;11.60;6.10;;;;;;;14.66;51.56;100162.61;105244;1292;61594;-84
2023/07/03 04:04:39;;;;;;;14.20;5.90;;;;;;;14.74;51.56;100166.46;105125;1295;72490;-84
2023/07/03 04:07:25;;;;;;;11.40;6.20;;;;;;;14.83;51.69;100169.05;105150;1294;67288;-84
2023/07/03 04:10:12;;;;;;;10.80;6.40;;;;;;;14.94;51.64;100166.53;105243;1292;71439;-85
2023/07/03 04:12:58;;;;;;;;;;;;;;;15.12;51.80;100166.27;105062;1292;60390;-84
2023/07/03 04:16:13;;;;;;;9.70;5.80;;;;;;;15.38;51.84;100164.47;105214;1292;60312;-84
2023/07/03 04:19:01;;;;;;;12.70;5.70;;;;;;;15.60;51.72;100169.63;104563;1303;72555;-84
2023/07/03 04:21:47;;;;;;;9.80;6.00;;;;;;;15.79;51.80;100172.22;104446;1299;67392;-85
2023/07/03 04:24:34;;;;;;;9.80;5.70;;;;;;;15.99;51.83;100172.73;104499;1300;72410;-84
2023/07/03 04:27:21;;;;;;;10.10;6.00;;;;;;;16.16;51.75;100173.14;104441;1301;60381;-84
2023/07/03 04:30:09;;;;;;;10.50;5.60;;;;;;;16.31;51.82;100169.31;104368;1301;60837;-84
2023/07/03 04:32:56;;;;;;;15.10;6.20;;;;;;;16.39;51.84;100169.78;104450;1298;72369;-84
2023/07/03 04:35:44;;;;;;;14.60;5.90;;;;;;;16.48;51.86;100172.32;104507;1297;67345;-84
2023/07/03 04:38:31;;;;;;;13.60;6.90;;;;;;;16.60;51.84;100168.45;104382;1303;73982;-84
2023/07/03 04:41:18;;;;;;;11.80;6.50;;;;;;;16.74;51.72;100172.14;104489;1303;62264;-84
2023/07/03 04:44:06;;;;;;;12.00;6.60;;;;;;;16.86;51.73;100173.79;104478;1297;60440;-84
2023/07/03 04:46:55;;;;;;;14.20;6.10;;;;;;;16.96;51.83;100170.69;104419;1299;73232;-84
2023/07/03 04:49:41;;;;;;;14.20;6.10;;;;;;;17.06;51.64;100171.23;104630;1298;67557;-84
2023/07/03 04:52:28;;;;;;;12.90;5.90;;;;;;;17.10;51.60;100172.78;104451;1302;72905;-84
2023/07/03 04:55:14;;;;;;;14.30;6.60;;;;;;;17.20;51.69;100172.94;104505;1298;60453;-84
2023/07/03 04:58:00;;;;;;;11.30;5.60;;;;;;;17.40;51.86;100176.63;105088;1293;59349;-85
2023/07/03 05:00:47;;;;;;;10.50;5.70;;;;;;;17.60;51.72;100175.46;105144;1290;72460;-84
2023/07/03 05:03:33;;;;;;;11.00;6.00;;;;;;;17.70;51.57;100173.37;105172;1290;67722;-84
2023/07/03 05:06:20;;;;;;;15.60;6.10;;;;;;;17.73;51.56;100176.34;105250;1289;72189;-84
2023/07/03 05:09:08;;;;;;;14.50;5.90;;;;;;;17.70;51.56;100177.34;105161;1294;60593;-84
2023/07/03 05:11:54;;;;;;;13.80;6.00;;;;;;;17.70;51.59;100175.98;105093;1290;60406;-84
2023/07/03 05:14:40;;;;;;;11.80;5.90;;;;;;;17.73;51.55;100176.14;105252;1289;73345;-84
2023/07/03 05:17:26;;;;;;;12.90;6.10;;;;;;;18.00;51.72;100174.19;105181;1295;71133;-84
2023/07/03 05:20:15;;;;;;;16.50;6.30;;;;;;;18.48;51.46;100178.18;105177;1286;71182;-83
2023/07/03 05:23:01;;;;;;;11.50;5.80;;;;;;;18.63;51.27;100172.29;105553;1285;60433;-84
2023/07/03 05:25:48;;;;;;;16.20;6.70;;;;;;;18.64;51.12;100176.60;105498;1286;62935;-84
2023/07/03 05:28:36;;;;;;;11.30;5.80;;;;;;;18.66;51.18;100170.04;105557;1286;72501;-84
2023/07/03 05:31:23;;;;;;;9.40;5.70;;;;;;;18.75;51.25;100170.90;105673;1285;67322;-84
2023/07/03 05:34:10;;;;;;;10.00;6.30;;;;;;;19.05;51.35;100169.35;105564;1286;71407;-84
2023/07/03 05:36:57;;;;;;;13.40;6.20;;;;;;;19.39;51.19;100171.83;105502;1286;60425;-84
2023/07/03 05:39:47;;;;;;;12.80;6.20;;;;;;;19.86;51.08;100173.23;105646;1286;59145;-84
2023/07/03 05:42:33;;;;;;;12.00;6.50;;;;;;;20.06;50.75;100177.23;105619;1288;72449;-84
2023/07/03 05:45:20;;;;;;;9.60;5.40;;;;;;;20.03;50.74;100177.59;105446;1285;68567;-84
2023/07/03 05:48:06;;;;;;;9.20;6.30;;;;;;;19.92;50.54;100183.69;105586;1285;71233;-84
2023/07/03 05:50:52;;;;;;;12.30;6.30;;;;;;;19.78;50.62;100188.21;105539;1286;60345;-84
2023/07/03 05:53:38;;;;;;;10.60;5.90;;;;;;;19.63;50.58;100186.36;105617;1285;62109;-84
2023/07/03 05:56:28;;;;;;;20.20;7.70;;;;;;;19.49;50.61;100187.84;105675;1286;72472;-84
2023/07/03 05:59:14;;;;;;;12.20;6.10;;;;;;;19.39;50.36;100187.92;105599;1289;67284;-84
2023/07/03 06:02:03;;;;;;;11.80;6.40;;;;;;;19.33;50.48;100184.59;105493;1292;72093;-84
2023/07/03 06:04:50;;;;;;;9.20;5.60;;;;;;;19.40;50.75;100180.70;105869;1289;59240;-84
2023/07/03 06:07:38;;;;;;;12.00;6.30;;;;;;;19.66;50.58;100182.70;105883;1289;58852;-84
2023/07/03 06:10:24;;;;;;;11.80;5.80;;;;;;;19.77;50.51;100181.06;105861;1285;73483;-84
2023/07/03 06:13:10;;;;;;;;;;;;;;;19.84;50.62;100186.11;105797;1286;67417;-84
2023/07/03 06:15:56;;;;;;;10.80;6.60;;;;;;;19.87;50.23;100185.02;105519;1285;72450;-84
2023/07/03 06:18:42;;;;;;;9.40;5.60;;;;;;;19.82;50.39;100185.34;105889;1286;58497;-85
2023/07/03 06:21:28;;;;;;;11.30;6.40;;;;;;;19.74;50.32;100192.34;105637;1285;62580;-84
2023/07/03 06:24:15;;;;;;;12.40;5.90;;;;;;;19.60;50.26;100214.17;105768;1285;71960;-84
2023/07/03 06:27:03;;;;;;;13.40;5.90;;;;;;;19.41;50.33;100233.95;105825;1287;67153;-84
2023/07/03 06:29:49;;;;;;;12.70;6.30;;;;;;;19.25;50.47;100229.11;105907;1289;71273;-85
2023/07/03 06:32:37;;;;;;;16.50;6.80;;;;;;;19.13;50.54;100228.78;105808;1285;60254;-84
2023/07/03 06:35:23;;;;;;;15.60;6.60;;;;;;;18.99;50.59;100226.25;105823;1286;59145;-84
2023/07/03 06:38:09;;;;;;;8.70;5.70;;;;;;;18.87;50.65;100225.56;105724;1287;72924;-84
2023/07/03 06:40:59;;;;;;;13.40;6.00;;;;;;;18.74;50.64;100228.03;105805;1285;68915;-84
2023/07/03 06:43:46;;;;;;;13.90;6.10;;;;;;;18.64;50.75;100227.25;105801;1289;72157;-84
2023/07/03 06:46:33;;;;;;;12.10;6.00;;;;;;;18.55;50.81;100218.98;105649;1286;59257;-84
2023/07/03 06:49:24;;;;;;;14.30;6.30;;;;;;;18.52;50.81;100211.46;105784;1291;60492;-84
2023/07/03 06:52:10;;;;;;;9.50;6.00;;;;;;;18.49;50.86;100206.71;105713;1285;73590;-84
2023/07/03 06:54:56;;;;;;;11.50;5.50;;;;;;;18.48;50.97;100202.92;105714;1291;67204;-84
2023/07/03 06:57:43;;;;;;;15.50;6.50;;;;;;;18.51;51.10;100196.29;105588;1286;71788;-84
2023/07/03 07:00:29;;;;;;;14.70;6.30;;;;;;;18.58;51.02;100191.61;105515;1286;59346;-84
2023/07/03 07:03:16;;;;;;;11.40;6.10;;;;;;;18.72;51.16;100191.84;105443;1285;311791;-84
2023/07/03 07:06:19;;;;;;;13.00;6.10;;;;;;;19.01;51.20;100193.66;105623;1286;72404;-84
2023/07/03 07:09:05;;;;;;;10.50;5.40;;;;;;;19.54;51.00;100193.02;105837;1285;68636;-84
2023/07/03 07:11:51;;;;;;;10.20;6.00;;;;;;;20.23;50.98;100191.52;105799;1285;72880;-84
2023/07/03 07:14:37;;;;;;;9.50;4.70;;;;;;;20.71;50.79;100192.48;105821;1285;58666;-84
2023/07/03 07:17:23;;;;;;;10.20;5.80;;;;;;;21.21;50.69;100190.61;105757;1285;60348;-84
2023/07/03 07:20:10;;;;;;;8.50;5.30;;;;;;;22.02;50.50;100182.91;105851;1285;76561;-84
2023/07/03 07:22:56;;;;;;;;;;;;;;;23.05;50.12;100179.73;105668;1288;67263;-84
2023/07/03 07:25:42;;;;;;;9.90;4.90;;;;;;;23.61;49.92;100178.52;105577;1286;71135;-85
2023/07/03 07:28:29;;;;;;;;;;;;;;;24.22;49.43;100177.91;105669;1286;60570;-84
2023/07/03 07:31:20;;;;;;;10.10;5.00;;;;;;;24.85;49.41;100175.60;105673;1286;59987;-84
2023/07/03 07:34:08;;;;;;;7.60;4.90;;;;;;;25.52;49.46;100170.83;105656;1286;71382;-84
2023/07/03 07:36:54;;;;;;;10.40;5.50;;;;;;;26.73;49.08;100163.63;105727;1285;68821;-84
2023/07/03 07:39:42;;;;;;;8.90;4.40;;;;;;;27.38;48.27;100168.83;105747;1285;72980;-85
2023/07/03 07:42:31;;;;;;;9.10;5.30;;;;;;;27.57;48.05;100170.84;105710;1285;60367;-85
2023/07/03 07:45:17;;;;;;;7.60;4.90;;;;;;;27.62;47.74;100168.12;105889;1286;60293;-85
2023/07/03 07:48:04;;;;;;;8.10;4.80;;;;;;;27.58;47.46;100167.55;105607;1285;73462;-85
2023/07/03 07:50:50;;;;;;;8.80;5.20;;;;;;;27.70;46.99;100169.13;105647;1286;67169;-85
2023/07/03 07:53:38;;;;;;;12.10;5.10;;;;;;;28.22;46.72;100162.91;105684;1286;72611;-85
2023/07/03 07:56:26;;;;;;;8.20;5.30;;;;;;;29.34;46.13;100159.27;105653;1286;60318;-86
2023/07/03 07:59:13;;;;;;;7.60;5.50;;;;;;;31.07;45.75;100159.24;105682;1285;61743;-85
2023/07/03 08:01:58;;;;;;;;;;;;;;;32.58;44.30;100159.46;106242;1290;72578;-85
2023/07/03 08:04:45;;;;;;;9.10;5.90;;;;;;;32.10;44.02;100159.46;105834;1286;67727;-85
2023/07/03 08:07:31;;;;;;;7.60;5.20;;;;;;;32.11;43.98;100164.24;105693;1291;72775;-85
2023/07/03 08:10:15;;;;;;;12.20;6.20;;;;;;;31.61;43.41;100157.36;105758;1285;59397;-85
2023/07/03 08:12:59;;;;;;;8.70;6.30;;;;;;;30.64;43.28;100159.89;105806;1285;59760;-85
2023/07/03 08:15:45;;;;;;;9.60;6.50;;;;;;;30.01;42.98;100157.89;105603;1285;74261;-85
2023/07/03 08:18:29;;;;;;;15.40;7.00;;;;;;;29.30;42.49;100153.52;105548;1291;67320;-85
2023/07/03 08:21:18;;;;;;;13.50;6.20;;;;;;;29.25;42.44;100148.52;105670;1285;71247;-85
2023/07/03 08:24:05;;;;;;;9.70;5.90;;;;;;;29.35;41.92;100144.60;105671;1285;60254;-85
2023/07/03 08:26:53;;;;;;;9.50;6.10;;;;;;;30.24;41.56;100144.25;105852;1285;60420;-85
2023/07/03 08:29:39;;;;;;;9.40;6.90;;;;;;;30.75;40.68;100143.75;105770;1285;72563;-85
2023/07/03 08:32:25;;;;;;;;;;;;;;;31.54;40.80;100143.77;105828;1285;68538;-86
2023/07/03 08:35:11;;;;;;;8.80;5.80;;;;;;;31.47;40.24;100137.99;105819;1285;72125;-85
2023/07/03 08:37:58;;;;;;;;;;;;;;;30.86;40.12;100133.95;105745;1285;61168;-85
2023/07/03 08:40:45;;;;;;;12.00;6.90;;;;;;;30.68;40.10;100130.31;105772;1285;58664;-86
2023/07/03 08:43:34;;;;;;;;;;;;;;;31.74;40.07;100133.46;105742;1285;74639;-85
2023/07/03 08:46:24;;;;;;;17.40;6.40;;;;;;;33.86;39.48;100128.55;105683;1285;73592;-86
2023/07/03 08:49:13;;;;;;;17.10;7.80;;;;;;;35.66;38.64;100127.30;105560;1286;74077;-86
2023/07/03 08:52:00;;;;;;;10.80;6.80;;;;;;;36.98;38.24;100130.73;105480;1285;60394;-86
2023/07/03 08:54:49;;;;;;;8.90;6.80;;;;;;;38.34;37.81;100123.79;105753;1285;60239;-86
2023/07/03 08:57:36;;;;;;;9.70;7.00;;;;;;;39.22;36.66;100126.16;105646;1286;73823;-86
2023/07/03 09:00:23;;;;;;;9.90;6.30;;;;;;;38.25;36.11;100119.95;105727;1285;67091;-86
2023/07/03 09:03:18;;;;;;;7.90;6.10;;;;;;;36.90;35.78;100122.59;105736;1285;71162;-86
2023/07/03 09:06:25;;;;;;;;;;;;;;;35.36;35.52;100119.20;105816;1285;58725;-86
2023/07/03 09:09:18;;;;;;;10.40;6.50;;;;;;;33.76;35.32;100121.72;105624;1285;61508;-85
2023/07/03 09:12:26;;;;;;;10.20;7.40;;;;;;;32.50;35.14;100121.69;105709;1286;72593;-86
2023/07/03 09:15:27;;;;;;;9.30;6.90;;;;;;;31.24;34.92;100118.23;105628;1285;68548;-85
2023/07/03 09:18:18;;;;;;;14.30;8.00;;;;;;;30.32;34.59;100114.58;105657;1289;71968;-85
2023/07/03 09:21:04;;;;;;;13.90;8.50;;;;;;;29.63;34.25;100120.91;105754;1285;60273;-85
2023/07/03 09:23:56;;;;;;;;;;;;;;;28.88;33.96;100123.31;105639;1290;60425;-85
2023/07/03 09:27:05;;;;;;;16.80;8.60;;;;;;;27.97;33.82;100121.16;105768;1286;73522;-84
2023/07/03 09:29:55;;;;;;;15.50;8.60;;;;;;;27.17;33.85;100119.42;105763;1288;67448;-85
2023/07/03 09:32:41;;;;;;;13.10;8.70;;;;;;;26.71;33.91;100121.92;105722;1285;71236;-85
2023/07/03 09:35:36;;;;;;;14.40;8.20;;;;;;;26.33;33.86;100123.05;105641;1285;60456;-86
2023/07/03 09:38:24;;;;;;;22.70;9.10;;;;;;;26.03;33.99;100123.94;101663;1285;5176925;-86
2023/07/03 09:41:10;;;;;;;13.10;8.40;;;;;;;25.73;33.83;100124.02;105530;1285;67166;-86
2023/07/03 09:43:57;;;;;;;15.50;9.00;;;;;;;25.47;34.17;100119.16;105625;1285;71252;-86
2023/07/03 09:46:46;;;;;;;18.50;7.90;;;;;;;25.37;34.21;100119.34;105696;1288;60322;-87
2023/07/03 09:49:33;;;;;;;13.50;9.50;;;;;;;25.17;34.29;100122.98;105656;1285;59868;-87
2023/07/03 09:52:21;;;;;;;17.00;9.20;;;;;;;24.98;34.38;100119.33;105736;1285;73543;-87
2023/07/03 09:55:08;;;;;;;16.40;9.80;;;;;;;24.86;34.44;100119.44;105712;1288;67205;-86
2023/07/03 09:57:54;;;;;;;16.30;9.70;;;;;;;24.66;34.67;100115.27;105590;1285;72694;-86
2023/07/03 10:01:00;;;;;;;18.30;8.60;;;;;;;24.45;34.63;100112.78;105643;1285;60393;-86
2023/07/03 10:03:46;;;;;;;21.00;10.00;;;;;;;24.24;34.75;100112.05;106240;1285;60421;-86
2023/07/03 10:06:32;;;;;;;12.00;8.30;;;;;;;24.13;35.05;100106.10;105549;1287;73777;-86
2023/07/03 10:09:24;;;;;;;;;;;;;;;24.16;35.29;100103.72;105644;1286;68205;-86
2023/07/03 10:12:31;;;;;;;18.10;8.70;;;;;;;24.21;35.49;100103.98;105644;1287;71164;-86
2023/07/03 10:15:23;;;;;;;17.00;9.00;;;;;;;24.31;35.62;100107.75;105733;1285;58276;-86
2023/07/03 10:18:23;;;;;;;17.60;10.00;;;;;;;24.37;35.64;100111.65;106076;1285;60511;-86
2023/07/03 10:21:13;;;;;;;15.30;8.10;;;;;;;24.34;35.64;100109.09;105648;1285;74263;-86
2023/07/03 10:24:01;;;;;;;14.80;8.40;;;;;;;24.24;35.75;100109.72;105675;1286;68567;-86
2023/07/03 10:26:52;;;;;;;17.10;8.70;;;;;;;24.15;35.94;100110.28;105662;1285;72548;-86
2023/07/03 10:29:49;;;;;;;15.50;8.40;;;;;;;24.19;36.06;100110.30;105669;1285;61311;-86
2023/07/03 10:32:37;;;;;;;16.00;8.70;;;;;;;24.24;36.14;100111.13;105534;1285;60473;-86
2023/07/03 10:35:30;;;;;;;17.30;9.20;;;;;;;24.24;36.25;100107.63;105460;1288;73315;-86
2023/07/03 10:38:34;;;;;;;18.90;8.90;;;;;;;24.27;36.40;100106.73;105675;1285;68985;-85
2023/07/03 10:41:27;;;;;;;16.70;9.10;;;;;;;24.36;36.61;100105.43;105714;1289;71191;-85
2023/07/03 10:44:21;;;;;;;12.70;8.50;;;;;;;24.44;36.96;100096.70;105461;1291;60451;-86
2023/07/03 10:47:29;;;;;;;14.20;8.20;;;;;;;24.60;36.85;100102.90;105673;1285;63196;-86
2023/07/03 10:50:18;;;;;;;16.10;9.60;;;;;;;24.62;36.90;100102.35;105733;1285;73142;-85
2023/07/03 10:53:38;;;;;;;15.70;8.90;;;;;;;24.59;36.91;100110.92;105639;1286;70024;-85
2023/07/03 10:56:47;;;;;;;13.80;8.30;;;;;;;24.39;37.03;100116.69;105687;1285;74672;-86
2023/07/03 10:59:41;;;;;;;12.80;7.90;;;;;;;24.20;37.14;100125.39;105522;1286;60517;-86
2023/07/03 11:02:53;;;;;;;14.80;9.10;;;;;;;24.01;37.24;100127.06;105629;1285;60348;-86
2023/07/03 11:06:00;;;;;;;13.70;8.90;;;;;;;23.86;37.36;100126.75;105362;1291;73136;-86
2023/07/03 11:09:05;;;;;;;14.80;8.80;;;;;;;23.87;37.51;100128.78;105202;1289;67833;-86
2023/07/03 11:12:02;;;;;;;19.60;9.20;;;;;;;23.95;37.61;100129.13;105285;1290;74071;-86
2023/07/03 11:15:21;;;;;;;16.30;10.00;;;;;;;24.12;37.92;100128.48;105302;1289;59718;-86
2023/07/03 11:18:51;;;;;;;14.00;8.70;;;;;;;24.24;38.05;100124.89;105297;1292;63597;-86
2023/07/03 11:21:59;;;;;;;12.30;7.80;;;;;;;24.23;38.06;100130.23;105168;1289;73557;-86
2023/07/03 11:25:05;;;;;;;13.70;8.50;;;;;;;24.27;38.06;100128.34;105261;1292;67262;-85
2023/07/03 11:28:26;;;;;;;18.70;8.30;;;;;;;24.33;38.14;100114.84;105154;1290;72408;-83
2023/07/03 11:31:14;;;;;;;12.60;8.20;;;;;;;24.39;38.15;100122.65;105185;1292;60334;-83
2023/07/03 11:34:02;;;;;;;11.50;8.00;;;;;;;24.43;38.19;100124.53;105153;1290;60449;-83
2023/07/03 11:36:51;;;;;;;13.40;8.20;;;;;;;24.43;38.22;100126.16;105177;1289;72453;-83
2023/07/03 11:39:49;;;;;;;16.70;8.10;;;;;;;24.45;38.30;100130.05;105220;1292;67192;-83
2023/07/03 11:42:37;;;;;;;18.40;8.60;;;;;;;24.44;38.18;100134.75;105213;1285;73038;-83
2023/07/03 11:45:27;;;;;;;15.10;7.80;;;;;;;24.32;38.24;100137.11;105525;1285;58421;-86
2023/07/03 11:48:25;;;;;;;14.90;7.10;;;;;;;24.19;38.30;100136.05;105684;1285;60890;-86
2023/07/03 11:51:15;;;;;;;14.80;8.50;;;;;;;24.19;38.47;100134.98;105726;1285;72389;-86
2023/07/03 11:54:16;;;;;;;14.30;7.90;;;;;;;24.20;38.43;100139.84;105705;1285;67103;-86
2023/07/03 11:57:04;;;;;;;16.90;8.10;;;;;;;24.20;38.55;100138.41;105527;1285;71386;-86
2023/07/03 11:59:51;;;;;;;17.40;8.00;;;;;;;24.22;38.53;100140.89;106536;1285;58264;-84
2023/07/03 12:02:56;;;;;;;17.80;7.30;;;;;;;24.17;38.60;100139.58;106135;1285;60261;-84
2023/07/03 12:05:43;;;;;;;12.50;7.30;;;;;;;24.13;38.61;100136.05;105614;1283;72489;-84
2023/07/03 12:08:40;;;;;;;14.40;7.80;;;;;;;24.11;38.73;100139.47;105832;1285;67134;-83
2023/07/03 12:11:26;;;;;;;14.50;7.90;;;;;;;24.16;38.73;100138.95;105678;1285;70460;-86
2023/07/03 12:15:09;;;;;;;12.60;8.20;;;;;;;24.15;38.78;100140.25;105724;1285;60412;-86
2023/07/03 12:18:01;;;;;;;12.00;8.00;;;;;;;24.11;38.83;100144.94;105127;1291;58856;-86
2023/07/03 12:20:55;;;;;;;11.40;7.50;;;;;;;24.16;38.80;100142.66;105086;1291;72385;-86
2023/07/03 12:23:44;;;;;;;16.80;8.70;;;;;;;24.20;38.86;100143.20;105039;1291;67403;-86
2023/07/03 12:26:30;;;;;;;14.70;9.10;;;;;;;24.18;38.83;100148.98;104977;1291;71287;-86
2023/07/03 12:29:18;;;;;;;15.20;7.80;;;;;;;24.18;38.81;100148.83;105010;1291;60369;-86
2023/07/03 12:32:08;;;;;;;15.60;8.10;;;;;;;24.17;38.93;100144.64;105208;1291;59145;-86
2023/07/03 12:35:09;;;;;;;13.60;8.70;;;;;;;24.22;39.04;100148.14;105869;1291;72693;-87
2023/07/03 12:37:59;;;;;;;14.40;8.00;;;;;;;24.24;38.99;100149.03;105215;1290;67714;-86
2023/07/03 12:40:46;;;;;;;13.50;8.10;;;;;;;24.25;39.10;100145.63;105187;1294;71767;-86
2023/07/03 12:43:34;;;;;;;15.00;7.60;;;;;;;24.20;39.01;100150.96;105135;1291;59206;-86
2023/07/03 12:46:31;;;;;;;11.60;7.10;;;;;;;24.21;39.05;100147.71;105060;1292;60268;-86
2023/07/03 12:49:20;;;;;;;11.20;7.70;;;;;;;24.14;39.05;100153.56;105180;1292;72768;-86
2023/07/03 12:52:06;;;;;;;19.30;8.50;;;;;;;24.12;39.13;100157.79;105051;1291;68472;-86
2023/07/03 12:54:53;;;;;;;16.50;8.90;;;;;;;24.11;39.13;100156.92;105513;1290;74114;-86
2023/07/03 12:57:41;;;;;;;15.80;7.80;;;;;;;24.08;39.23;100158.54;105600;1291;60526;-86